createdAt,value
2018-08-07T00:01:56.862Z,33.88
2018-08-07T00:04:28.225Z,33.91
2018-08-07T00:06:59.477Z,33.91
2018-08-07T00:09:32.025Z,33.80
2018-08-07T00:12:04.142Z,33.83
2018-08-07T00:14:36.458Z,33.79
2018-08-07T00:17:09.226Z,33.56
2018-08-07T00:19:40.565Z,33.57
2018-08-07T00:22:13.851Z,33.69
2018-08-07T00:24:46.446Z,33.78
2018-08-07T00:27:19.057Z,33.80
2018-08-07T00:29:50.348Z,33.47
2018-08-07T00:32:21.952Z,33.29
2018-08-07T00:34:53.395Z,33.17
2018-08-07T00:37:24.755Z,33.09
2018-08-07T00:39:57.343Z,33.30
2018-08-07T00:42:28.883Z,33.13
2018-08-07T00:45:00.277Z,32.94
2018-08-07T00:47:31.604Z,32.90
2018-08-07T00:50:02.944Z,32.84
2018-08-07T00:52:34.758Z,32.77
2018-08-07T00:55:07.867Z,32.76
2018-08-07T00:57:39.227Z,32.74
2018-08-07T01:00:17.731Z,32.70
2018-08-07T01:02:49.081Z,32.60
2018-08-07T01:05:20.645Z,32.58
2018-08-07T01:07:52.952Z,32.52
2018-08-07T01:10:24.304Z,32.43
2018-08-07T01:12:55.925Z,32.39
2018-08-07T01:15:28.077Z,32.37
2018-08-07T01:18:00.276Z,32.42
2018-08-07T01:20:33.434Z,32.41
2018-08-07T01:23:05.047Z,32.36
2018-08-07T01:25:36.616Z,32.35
2018-08-07T01:28:08.312Z,32.54
2018-08-07T01:30:40.424Z,32.58
2018-08-07T01:33:12.380Z,32.58
2018-08-07T01:35:43.745Z,32.45
2018-08-07T01:38:15.318Z,32.21
2018-08-07T01:40:46.588Z,32.21
2018-08-07T01:43:18.514Z,32.00
2018-08-07T01:45:50.314Z,31.92
2018-08-07T01:48:21.604Z,31.81
2018-08-07T01:50:52.933Z,31.73
2018-08-07T01:53:24.735Z,31.74
2018-08-07T01:55:56.108Z,31.65
2018-08-07T01:58:27.377Z,31.46
2018-08-07T02:00:59.041Z,31.43
2018-08-07T02:03:30.446Z,31.50
2018-08-07T02:06:01.962Z,31.56
2018-08-07T02:08:33.650Z,31.58
2018-08-07T02:11:04.966Z,31.64
2018-08-07T02:13:37.455Z,31.47
2018-08-07T02:16:09.079Z,31.49
2018-08-07T02:18:40.392Z,31.46
2018-08-07T02:21:11.994Z,31.42
2018-08-07T02:23:43.901Z,31.31
2018-08-07T02:26:15.224Z,31.27
2018-08-07T02:28:46.553Z,31.14
2018-08-07T02:31:18.202Z,30.96
2018-08-07T02:33:51.548Z,31.01
2018-08-07T02:36:23.028Z,31.01
2018-08-07T02:38:54.462Z,30.73
2018-08-07T02:41:26.137Z,30.93
2018-08-07T02:43:58.506Z,31.05
2018-08-07T02:46:29.608Z,30.82
2018-08-07T02:49:01.347Z,30.79
2018-08-07T02:51:33.316Z,31.03
2018-08-07T02:54:05.206Z,30.91
2018-08-07T02:56:36.555Z,30.72
2018-08-07T02:59:09.428Z,30.61
2018-08-07T03:01:41.447Z,30.57
2018-08-07T03:04:14.386Z,30.54
2018-08-07T03:06:46.072Z,30.51
2018-08-07T03:09:18.327Z,30.03
2018-08-07T03:11:50.953Z,30.47
2018-08-07T03:14:22.328Z,30.41
2018-08-07T03:16:52.770Z,30.50
2018-08-07T03:19:23.745Z,30.31
2018-08-07T03:21:56.140Z,30.22
2018-08-07T03:24:28.597Z,30.23
2018-08-07T03:27:00.237Z,30.19
2018-08-07T03:29:31.630Z,30.25
2018-08-07T03:32:03.462Z,30.30
2018-08-07T03:34:35.829Z,30.24
2018-08-07T03:37:07.215Z,30.26
2018-08-07T03:39:38.947Z,30.07
2018-08-07T03:42:10.308Z,30.02
2018-08-07T03:44:42.677Z,29.88
2018-08-07T03:47:15.228Z,29.93
2018-08-07T03:49:47.343Z,30.04
2018-08-07T03:52:19.122Z,30.18
2018-08-07T03:54:51.335Z,29.99
2018-08-07T03:57:22.745Z,30.13
2018-08-07T03:59:55.045Z,30.28
2018-08-07T04:02:27.996Z,30.26
2018-08-07T04:05:00.592Z,30.12
2018-08-07T04:07:33.116Z,30.29
2018-08-07T04:10:07.445Z,30.19
2018-08-07T04:12:38.478Z,30.15
2018-08-07T04:15:18.825Z,30.17
2018-08-07T04:17:53.687Z,30.21
2018-08-07T04:20:26.359Z,30.31
2018-08-07T04:22:56.870Z,30.31
2018-08-07T04:25:29.543Z,30.31
2018-08-07T04:28:01.760Z,30.72
2018-08-07T04:30:34.221Z,31.11
2018-08-07T04:33:07.910Z,31.43
2018-08-07T04:35:39.317Z,31.65
2018-08-07T04:38:13.935Z,31.99
2018-08-07T04:40:44.878Z,32.34
2018-08-07T04:43:15.379Z,32.53
2018-08-07T04:45:46.790Z,32.73
2018-08-07T04:48:18.186Z,33.04
2018-08-07T04:50:50.584Z,33.37
2018-08-07T04:53:23.550Z,33.78
2018-08-07T04:55:55.464Z,34.19
2018-08-07T04:58:26.884Z,34.57
2018-08-07T05:00:58.719Z,34.89
2018-08-07T05:03:32.140Z,35.25
2018-08-07T05:06:04.207Z,35.41
2018-08-07T05:08:35.835Z,35.53
2018-08-07T05:11:08.142Z,35.79
2018-08-07T05:13:40.428Z,36.13
2018-08-07T05:16:13.960Z,36.31
2018-08-07T05:18:46.467Z,36.63
2018-08-07T05:21:17.833Z,36.84
2018-08-07T05:23:49.552Z,36.95
2018-08-07T05:26:20.902Z,36.96
2018-08-07T05:28:52.267Z,37.13
2018-08-07T05:31:22.786Z,37.42
2018-08-07T05:33:55.360Z,37.75
2018-08-07T05:39:02.042Z,38.11
2018-08-07T05:41:33.173Z,38.12
2018-08-07T05:44:04.163Z,38.22
2018-08-07T05:46:35.830Z,38.13
2018-08-07T05:49:07.213Z,37.91
2018-08-07T05:51:39.399Z,37.22
2018-08-07T05:54:11.711Z,36.37
2018-08-07T05:56:44.014Z,35.70
2018-08-07T05:59:15.719Z,35.26
2018-08-07T06:01:46.247Z,36.41
2018-08-07T06:04:16.872Z,37.26
2018-08-07T06:06:49.661Z,37.83
2018-08-07T06:09:21.250Z,37.84
2018-08-07T06:11:53.595Z,37.54
2018-08-07T06:14:24.124Z,37.80
2018-08-07T06:16:56.485Z,38.30
2018-08-07T06:19:30.074Z,38.80
2018-08-07T06:22:00.904Z,39.02
2018-08-07T06:24:33.249Z,39.29
2018-08-07T06:27:04.130Z,39.09
2018-08-07T06:29:35.213Z,38.93
2018-08-07T06:32:05.726Z,39.31
2018-08-07T06:34:38.023Z,39.89
2018-08-07T06:37:10.837Z,40.18
2018-08-07T06:39:46.698Z,40.38
2018-08-07T06:42:17.739Z,40.32
2018-08-07T06:44:51.947Z,40.56
2018-08-07T06:47:23.522Z,40.53
2018-08-07T06:50:02.945Z,40.06
2018-08-07T06:52:35.385Z,40.41
2018-08-07T06:55:06.850Z,40.70
2018-08-07T06:57:37.792Z,40.76
2018-08-07T07:00:24.587Z,40.73
2018-08-07T07:02:57.300Z,40.97
2018-08-07T07:05:30.044Z,41.04
2018-08-07T07:08:03.252Z,41.16
2018-08-07T07:10:33.752Z,40.18
2018-08-07T07:13:04.726Z,40.86
2018-08-07T07:15:35.325Z,40.73
2018-08-07T07:18:08.901Z,41.09
2018-08-07T07:20:39.788Z,41.36
2018-08-07T07:23:11.314Z,41.64
2018-08-07T07:25:42.535Z,41.91
2018-08-07T07:28:13.402Z,42.22
2018-08-07T07:30:44.233Z,42.45
2018-08-07T07:33:16.177Z,42.64
2018-08-07T07:35:48.718Z,42.71
2018-08-07T07:38:19.102Z,42.87
2018-08-07T07:40:50.577Z,43.14
2018-08-07T07:43:22.524Z,43.29
2018-08-07T07:45:53.108Z,43.60
2018-08-07T07:48:23.343Z,43.70
2018-08-07T07:50:56.310Z,43.89
2018-08-07T07:53:27.326Z,43.88
2018-08-07T07:56:02.255Z,44.32
2018-08-07T07:58:34.306Z,44.26
2018-08-07T08:01:09.722Z,44.97
2018-08-07T08:03:43.251Z,45.53
2018-08-07T08:06:15.369Z,46.19
2018-08-07T08:08:49.118Z,46.72
2018-08-07T08:11:22.345Z,46.69
2018-08-07T08:13:54.966Z,46.34
2018-08-07T08:16:26.099Z,46.24
2018-08-07T08:18:58.784Z,46.07
2018-08-07T08:21:32.152Z,45.90
2018-08-07T08:24:08.519Z,45.55
2018-08-07T08:26:48.527Z,45.61
2018-08-07T08:29:21.307Z,45.21
2018-08-07T08:31:56.229Z,44.73
2018-08-07T08:34:27.304Z,44.51
2018-08-07T08:36:59.794Z,44.47
2018-08-07T08:39:33.644Z,44.68
2018-08-07T08:42:07.822Z,44.60
2018-08-07T08:44:41.120Z,44.06
2018-08-07T08:47:12.007Z,43.80
2018-08-07T08:49:52.310Z,43.92
2018-08-07T08:52:58.451Z,43.75
2018-08-07T08:55:41.306Z,43.67
2018-08-07T08:58:13.917Z,43.70
2018-08-07T09:00:48.085Z,43.97
2018-08-07T09:03:19.329Z,44.18
2018-08-07T09:05:52.217Z,44.08
2018-08-07T09:08:24.618Z,44.25
2018-08-07T09:10:58.437Z,44.11
2018-08-07T09:13:34.420Z,43.84
2018-08-07T09:16:21.600Z,43.33
2018-08-07T09:18:56.378Z,42.67
2018-08-07T09:21:37.705Z,42.90
2018-08-07T09:24:31.693Z,43.38
2018-08-07T09:27:23.961Z,43.81
2018-08-07T09:29:58.341Z,44.16
2018-08-07T09:32:36.884Z,44.53
2018-08-07T09:35:14.252Z,44.64
2018-08-07T09:37:48.569Z,44.89
2018-08-07T09:40:24.725Z,45.09
2018-08-07T09:43:08.749Z,45.28
2018-08-07T09:46:10.486Z,45.13
2018-08-07T09:48:48.823Z,44.80
2018-08-07T09:51:25.732Z,44.91
2018-08-07T09:54:06.105Z,45.09
2018-08-07T09:56:51.339Z,45.18
2018-08-07T09:59:30.898Z,45.38
2018-08-07T10:02:12.795Z,45.28
2018-08-07T10:04:48.532Z,45.56
2018-08-07T10:07:35.454Z,45.86
2018-08-07T10:10:22.547Z,45.75
2018-08-07T10:13:05.535Z,45.90
2018-08-07T10:16:17.300Z,45.87
2018-08-07T10:19:38.354Z,46.25
2018-08-07T10:22:21.223Z,46.20
2018-08-07T10:24:52.928Z,45.78
2018-08-07T10:27:25.172Z,46.31
2018-08-07T10:29:59.197Z,46.62
2018-08-07T10:32:31.420Z,46.65
2018-08-07T10:35:03.526Z,46.81
2018-08-07T10:37:34.548Z,46.95
2018-08-07T10:40:08.201Z,46.55
2018-08-07T10:42:41.974Z,46.61
2018-08-07T10:45:17.994Z,46.58
2018-08-07T10:47:48.592Z,47.46
2018-08-07T10:54:02.428Z,47.42
2018-08-07T10:56:33.967Z,47.53
2018-08-07T10:59:07.426Z,47.18
2018-08-07T11:01:39.558Z,46.69
2018-08-07T11:04:12.599Z,46.75
2018-08-07T11:06:46.568Z,46.64
2018-08-07T11:09:16.445Z,46.65
2018-08-07T11:11:51.298Z,46.71
2018-08-07T11:14:23.677Z,46.97
2018-08-07T11:16:54.202Z,47.19
2018-08-07T11:19:25.001Z,47.66
2018-08-07T11:21:56.403Z,47.52
2018-08-07T11:24:32.007Z,47.24
2018-08-07T11:27:08.276Z,48.20
2018-08-07T11:29:40.316Z,48.16
2018-08-07T11:32:16.619Z,48.19
2018-08-07T11:34:46.702Z,47.29
2018-08-07T11:37:18.252Z,47.34
2018-08-07T11:39:47.991Z,47.65
2018-08-07T11:42:21.112Z,47.69
2018-08-07T11:44:54.010Z,47.71
2018-08-07T11:47:31.142Z,47.27
2018-08-07T11:50:01.431Z,47.33
2018-08-07T11:52:32.494Z,47.37
2018-08-07T11:55:03.638Z,47.82
2018-08-07T11:57:34.406Z,48.11
2018-08-07T12:03:00.141Z,48.15
2018-08-07T12:05:36.641Z,48.17
2018-08-07T12:08:08.940Z,48.03
2018-08-07T12:10:44.824Z,48.29
2018-08-07T12:13:17.684Z,48.01
2018-08-07T12:15:49.320Z,47.83
2018-08-07T12:18:19.806Z,47.92
2018-08-07T12:20:50.393Z,48.10
2018-08-07T12:23:24.053Z,48.35
2018-08-07T12:25:55.375Z,47.68
2018-08-07T12:28:28.113Z,47.15
2018-08-07T12:31:00.914Z,46.91
2018-08-07T12:33:32.075Z,46.27
2018-08-07T12:36:03.272Z,46.00
2018-08-07T12:38:32.666Z,46.05
2018-08-07T12:41:02.199Z,45.91
2018-08-07T12:43:32.955Z,45.62
2018-08-07T12:46:03.239Z,45.13
2018-08-07T12:48:37.293Z,45.09
2018-08-07T12:51:08.127Z,44.76
2018-08-07T12:53:40.183Z,45.24
2018-08-07T12:56:13.055Z,45.39
2018-08-07T12:58:43.901Z,44.80
2018-08-07T13:01:16.690Z,44.63
2018-08-07T13:03:48.644Z,44.19
2018-08-07T13:06:19.697Z,44.03
2018-08-07T13:08:55.096Z,44.00
2018-08-07T13:11:24.730Z,44.04
2018-08-07T13:13:58.464Z,44.02
2018-08-07T13:16:31.764Z,43.98
2018-08-07T13:19:01.620Z,44.22
2018-08-07T13:21:36.500Z,44.36
2018-08-07T13:24:06.065Z,44.75
2018-08-07T13:26:37.093Z,44.27
2018-08-07T13:29:12.092Z,44.17
2018-08-07T13:31:43.451Z,42.96
2018-08-07T13:34:13.032Z,42.12
2018-08-07T13:36:48.692Z,42.16
2018-08-07T13:39:18.517Z,42.34
2018-08-07T13:41:50.191Z,41.93
2018-08-07T13:44:24.305Z,42.38
2018-08-07T13:46:56.097Z,42.15
2018-08-07T13:49:29.097Z,42.29
2018-08-07T13:52:01.335Z,42.03
2018-08-07T18:25:57.741Z,41.37
2018-08-07T18:28:28.773Z,41.24
2018-08-07T18:30:58.098Z,41.10
2018-08-07T18:33:30.745Z,40.94
2018-08-07T18:36:08.519Z,40.98
2018-08-07T18:38:49.771Z,40.91
2018-08-07T18:41:36.764Z,40.99
2018-08-07T18:44:07.961Z,40.73
2018-08-07T18:46:39.955Z,40.72
2018-08-07T18:49:13.207Z,40.40
2018-08-07T18:51:43.438Z,40.50
2018-08-07T18:54:17.502Z,40.29
2018-08-07T18:56:51.559Z,39.86
2018-08-07T18:59:20.934Z,39.84
2018-08-07T19:01:50.837Z,39.73
2018-08-07T19:04:22.501Z,39.65
2018-08-07T19:06:53.151Z,39.53
2018-08-07T19:09:29.731Z,39.42
2018-08-07T19:12:01.932Z,39.54
2018-08-07T19:14:32.164Z,39.41
2018-08-07T19:17:04.959Z,39.35
2018-08-07T19:19:35.070Z,39.15
2018-08-07T19:22:07.509Z,39.04
2018-08-07T19:24:37.401Z,38.96
2018-08-07T19:27:09.244Z,38.87
2018-08-07T19:29:40.220Z,38.86
2018-08-07T19:32:11.716Z,38.76
2018-08-07T19:34:47.681Z,38.71
2018-08-07T19:37:19.721Z,38.51
2018-08-07T19:39:50.579Z,38.54
2018-08-07T19:42:31.248Z,38.20
2018-08-07T19:45:01.388Z,38.71
2018-08-07T19:47:34.590Z,38.63
2018-08-07T19:50:13.562Z,38.57
2018-08-07T19:52:44.817Z,38.49
2018-08-07T19:55:17.896Z,38.40
2018-08-07T19:57:53.037Z,38.71
2018-08-07T20:00:27.106Z,38.81
2018-08-07T20:02:59.846Z,38.89
2018-08-07T20:05:33.139Z,38.92
2018-08-07T20:08:04.664Z,38.84
2018-08-07T20:10:37.096Z,38.67
2018-08-07T20:13:23.553Z,38.44
2018-08-07T20:15:58.336Z,38.21
2018-08-07T20:18:31.746Z,38.04
2018-08-07T20:21:02.429Z,37.92
2018-08-07T20:23:38.106Z,37.86
2018-08-07T20:26:12.104Z,37.78
2018-08-07T20:28:44.544Z,37.66
2018-08-07T20:31:18.538Z,37.58
2018-08-07T20:33:49.789Z,37.56
2018-08-07T20:36:22.099Z,37.56
2018-08-07T20:38:52.825Z,37.52
2018-08-07T20:41:23.485Z,37.07
2018-08-07T20:43:56.160Z,37.42
2018-08-07T20:46:27.932Z,37.19
2018-08-07T20:49:03.820Z,37.09
2018-08-07T20:51:38.607Z,36.96
2018-08-07T20:54:10.985Z,36.84
2018-08-07T20:56:44.643Z,36.79
2018-08-07T20:59:22.622Z,36.70
2018-08-07T21:01:53.026Z,36.63
2018-08-07T21:04:25.875Z,36.55
2018-08-07T21:06:56.453Z,36.48
2018-08-07T21:09:26.415Z,36.52
2018-08-07T21:11:57.560Z,36.54
2018-08-07T21:14:30.319Z,36.47
2018-08-07T21:17:02.582Z,36.48
2018-08-07T21:19:35.491Z,36.51
2018-08-07T21:22:07.769Z,36.52
2018-08-07T21:24:38.465Z,36.57
2018-08-07T21:27:08.432Z,36.50
2018-08-07T21:32:16.850Z,36.44
2018-08-07T21:34:48.644Z,36.30
2018-08-07T21:37:18.707Z,36.31
2018-08-07T21:39:49.208Z,36.50
2018-08-07T21:42:19.344Z,36.65
2018-08-07T21:44:50.588Z,36.71
2018-08-07T21:47:20.647Z,36.55
2018-08-07T21:49:52.555Z,36.40
2018-08-07T21:52:22.585Z,36.33
2018-08-07T21:54:53.260Z,36.38
2018-08-07T21:57:24.562Z,36.41
2018-08-07T21:59:55.248Z,36.22
2018-08-07T22:02:26.820Z,36.00
2018-08-07T22:04:58.759Z,35.87
2018-08-07T22:07:35.300Z,36.28
2018-08-07T22:10:05.772Z,36.21
2018-08-07T22:12:39.281Z,36.30
2018-08-07T22:15:09.360Z,36.25
2018-08-07T22:17:40.074Z,36.23
2018-08-07T22:20:13.115Z,36.20
2018-08-07T22:22:44.149Z,36.14
2018-08-07T22:25:15.586Z,36.14
2018-08-07T22:27:46.311Z,36.18
2018-08-07T22:30:22.509Z,36.24
2018-08-07T22:32:54.806Z,35.88
2018-08-07T22:35:29.659Z,35.90
2018-08-07T22:38:00.448Z,35.89
2018-08-07T22:40:30.600Z,35.68
2018-08-07T22:43:00.513Z,35.69
2018-08-07T22:45:30.523Z,35.53
2018-08-07T22:48:02.543Z,35.57
2018-08-07T22:50:33.213Z,35.17
2018-08-07T22:53:05.489Z,35.17
2018-08-07T22:55:35.967Z,35.04
2018-08-07T22:58:06.723Z,35.18
2018-08-07T23:00:36.263Z,35.02
2018-08-07T23:03:07.382Z,35.03
2018-08-07T23:05:36.883Z,34.96
2018-08-07T23:08:09.786Z,34.74
2018-08-07T23:10:42.537Z,34.74
2018-08-07T23:13:16.054Z,34.79
2018-08-07T23:15:48.500Z,34.80
2018-08-07T23:18:18.463Z,34.81
2018-08-07T23:20:50.247Z,35.04
2018-08-07T23:23:22.336Z,34.94
2018-08-07T23:25:53.378Z,34.57
2018-08-07T23:28:24.938Z,34.50
2018-08-07T23:30:55.051Z,34.65
2018-08-07T23:33:31.702Z,34.50
2018-08-07T23:36:02.226Z,34.30
2018-08-07T23:38:32.243Z,34.31
2018-08-07T23:41:02.551Z,34.41
2018-08-07T23:43:37.109Z,34.50
2018-08-07T23:46:08.610Z,34.53
2018-08-07T23:48:42.263Z,34.33
2018-08-07T23:51:12.907Z,34.23
2018-08-07T23:53:43.159Z,34.09
2018-08-07T23:56:13.131Z,34.11
2018-08-07T23:58:45.910Z,34.11
